This is the latest recevied weather packets stored in our database for station/object KD7ECD. If no packets are shown the sender has not sent any weather packets the latest 10 day(s).
| Time | Temp. | Humidity | Pressure | Rain* | Wind** | Luminosity | Snow |
|---|---|---|---|---|---|---|---|
| 1778084054 | 13.89° C | 83% | 1023.2 hPa | 0 mm | - | 448 W/m² | - |
| 1778083454 | 13.89° C | 83% | 1023 hPa | 0 mm | - | 251 W/m² | - |
| 1778082849 | 14.44° C | 82% | 1023.2 hPa | 0 mm | - | 606 W/m² | - |
| 1778081731 | 13.33° C | 85% | 1023 hPa | 0 mm | - | 226 W/m² | - |
| 1778081131 | 13.33° C | 86% | 1023 hPa | 0 mm | - | 208 W/m² | - |
| 1778080526 | 12.78° C | 87% | 1023.4 hPa | 0 mm | - | 157 W/m² | - |
| 1778079925 | 12.78° C | 87% | 1023.3 hPa | 0 mm | - | 149 W/m² | - |
| 1778079325 | 12.78° C | 88% | 1023.4 hPa | 0 mm | - | 108 W/m² | - |
| 1778078725 | 12.22° C | 89% | 1023.5 hPa | 0 mm | - | 66 W/m² | - |
| 1778078120 | 12.22° C | 89% | 1023.2 hPa | 0 mm | - | 54 W/m² | - |
| 1778077515 | 12.22° C | 89% | 1023.3 hPa | 0 mm | - | 42 W/m² | - |
| 1778076911 | 12.22° C | 90% | 1022.9 hPa | 0 mm | - | 40 W/m² | - |
| 1778076306 | 12.22° C | 91% | 1022.7 hPa | 0 mm | - | 43 W/m² | - |
| 1778075706 | 11.67° C | 91% | 1022.8 hPa | 0 mm | - | 24 W/m² | - |
| 1778075103 | 11.67° C | 92% | 1022.7 hPa | 0 mm | - | 15 W/m² | - |
| 1778074503 | 11.67° C | 92% | 1022.6 hPa | 0 mm | - | 10 W/m² | - |
| 1778073903 | 11.67° C | 92% | 1022.5 hPa | 0 mm | - | 6 W/m² | - |
| 1778073297 | 11.67° C | 93% | 1022.4 hPa | 0 mm | - | 3 W/m² | - |
| 1778072696 | 11.67° C | 93% | 1022.5 hPa | 0 mm | - | 0 W/m² | - |
| 1778072092 | 11.67° C | 93% | 1022.2 hPa | 0 mm | - | 0 W/m² | - |
| 1778071487 | 11.67° C | 94% | 1022.1 hPa | 0 mm | - | 0 W/m² | - |
| 1778070883 | 11.67° C | 94% | 1022.1 hPa | 0 mm | - | 0 W/m² | - |
| 1778070283 | 11.11° C | 94% | 1022.1 hPa | 0 mm | - | 0 W/m² | - |
| 1778069678 | 11.11° C | 94% | 1022.2 hPa | 0 mm | - | 0 W/m² | - |
| 1778069078 | 11.11° C | 95% | 1022.1 hPa | 0 mm | - | 0 W/m² | - |
* Rain latest hour (hover to see other rain measurements)
** Current wind speed in m/s (hover to see current wind gust speed)